Luna, Arkansas
Current Conditions -  °F | °C
As of 3:53 AM on Tuesday 27 Jan 2015 (Local Time) from KGLH Reporting Station
Clear Clear  
Wind Chill: 38°   Ceiling: Unl
Heat Index: 41°   Visibility: 10mi
Dew Point: 35°   Wind: 5mph
Humidity: 79%   Direction: 300°WNW
Pressure: 30.01"   Gusts: NA
Location:  33.3324°N, 91.3183°W
Report Text: KGLH 270953Z AUTO 30004KT 10SM CLR 05/02 A3001 RMK AO2 SLP170 T00500017
Loading
Personal Weather Stations






























Interactive Weather Map New forecast layout! Learn more

10-Day Weather Forecast

Advertisements
Track Severe Weather on mobile